sensor_id;sensor_type;location;lat;lon;timestamp;temperature;humidity
10891;DHT22;5498;50.928;11.598;2022-11-03T00:01:40;6.40;90.20
10891;DHT22;5498;50.928;11.598;2022-11-03T00:04:42;6.40;89.60
10891;DHT22;5498;50.928;11.598;2022-11-03T00:07:44;6.30;89.80
10891;DHT22;5498;50.928;11.598;2022-11-03T00:10:46;6.20;89.30
10891;DHT22;5498;50.928;11.598;2022-11-03T00:13:48;6.20;89.70
10891;DHT22;5498;50.928;11.598;2022-11-03T00:16:52;6.10;89.70
10891;DHT22;5498;50.928;11.598;2022-11-03T00:19:54;6.10;89.40
10891;DHT22;5498;50.928;11.598;2022-11-03T00:22:56;6.70;90.00
10891;DHT22;5498;50.928;11.598;2022-11-03T00:26:08;6.20;89.80
10891;DHT22;5498;50.928;11.598;2022-11-03T00:29:12;6.30;90.20
10891;DHT22;5498;50.928;11.598;2022-11-03T00:32:16;6.20;90.00
10891;DHT22;5498;50.928;11.598;2022-11-03T00:35:18;6.30;89.60
10891;DHT22;5498;50.928;11.598;2022-11-03T00:38:20;6.30;89.30
10891;DHT22;5498;50.928;11.598;2022-11-03T00:41:22;6.30;89.20
10891;DHT22;5498;50.928;11.598;2022-11-03T00:44:25;6.30;89.60
10891;DHT22;5498;50.928;11.598;2022-11-03T00:47:28;6.30;89.20
10891;DHT22;5498;50.928;11.598;2022-11-03T00:50:32;6.30;89.00
10891;DHT22;5498;50.928;11.598;2022-11-03T00:53:36;6.30;88.90
10891;DHT22;5498;50.928;11.598;2022-11-03T00:56:40;6.20;89.40
10891;DHT22;5498;50.928;11.598;2022-11-03T00:59:43;6.20;89.50
10891;DHT22;5498;50.928;11.598;2022-11-03T01:02:47;6.20;88.90
10891;DHT22;5498;50.928;11.598;2022-11-03T01:05:49;6.10;89.50
10891;DHT22;5498;50.928;11.598;2022-11-03T01:09:05;6.00;89.60
10891;DHT22;5498;50.928;11.598;2022-11-03T01:12:08;6.10;90.10
10891;DHT22;5498;50.928;11.598;2022-11-03T01:15:11;5.80;90.20
10891;DHT22;5498;50.928;11.598;2022-11-03T01:18:14;5.90;90.10
10891;DHT22;5498;50.928;11.598;2022-11-03T01:21:17;5.90;90.00
10891;DHT22;5498;50.928;11.598;2022-11-03T01:24:20;6.00;90.10
10891;DHT22;5498;50.928;11.598;2022-11-03T01:27:22;6.00;90.00
10891;DHT22;5498;50.928;11.598;2022-11-03T01:30:24;5.80;89.60
10891;DHT22;5498;50.928;11.598;2022-11-03T01:33:27;5.80;90.00
10891;DHT22;5498;50.928;11.598;2022-11-03T01:36:30;5.70;90.00
10891;DHT22;5498;50.928;11.598;2022-11-03T01:39:33;5.70;90.00
10891;DHT22;5498;50.928;11.598;2022-11-03T01:42:35;5.70;89.90
10891;DHT22;5498;50.928;11.598;2022-11-03T01:45:37;5.70;90.10
10891;DHT22;5498;50.928;11.598;2022-11-03T01:48:43;5.70;90.10
10891;DHT22;5498;50.928;11.598;2022-11-03T01:51:51;5.70;90.30
10891;DHT22;5498;50.928;11.598;2022-11-03T01:54:59;5.70;90.30
10891;DHT22;5498;50.928;11.598;2022-11-03T01:58:06;5.70;90.30
10891;DHT22;5498;50.928;11.598;2022-11-03T02:01:10;5.70;90.10
10891;DHT22;5498;50.928;11.598;2022-11-03T02:04:16;5.70;90.20
10891;DHT22;5498;50.928;11.598;2022-11-03T02:07:25;5.60;90.20
10891;DHT22;5498;50.928;11.598;2022-11-03T02:10:31;5.60;90.20
10891;DHT22;5498;50.928;11.598;2022-11-03T02:13:34;5.50;90.20
10891;DHT22;5498;50.928;11.598;2022-11-03T02:16:36;5.50;90.10
10891;DHT22;5498;50.928;11.598;2022-11-03T02:19:42;5.40;90.20
10891;DHT22;5498;50.928;11.598;2022-11-03T02:26:28;5.40;90.40
10891;DHT22;5498;50.928;11.598;2022-11-03T02:29:31;5.40;90.40
10891;DHT22;5498;50.928;11.598;2022-11-03T02:32:39;5.40;90.10
10891;DHT22;5498;50.928;11.598;2022-11-03T02:35:50;5.40;90.50
10891;DHT22;5498;50.928;11.598;2022-11-03T02:38:58;5.80;90.50
10891;DHT22;5498;50.928;11.598;2022-11-03T02:42:06;5.40;90.40
10891;DHT22;5498;50.928;11.598;2022-11-03T02:45:10;5.40;90.40
10891;DHT22;5498;50.928;11.598;2022-11-03T02:48:14;5.40;90.10
10891;DHT22;5498;50.928;11.598;2022-11-03T02:51:17;5.30;90.10
10891;DHT22;5498;50.928;11.598;2022-11-03T02:54:22;5.30;90.00
10891;DHT22;5498;50.928;11.598;2022-11-03T02:57:29;5.30;90.20
10891;DHT22;5498;50.928;11.598;2022-11-03T03:00:39;5.30;90.20
10891;DHT22;5498;50.928;11.598;2022-11-03T03:03:49;5.30;90.10
10891;DHT22;5498;50.928;11.598;2022-11-03T03:06:57;5.30;90.10
10891;DHT22;5498;50.928;11.598;2022-11-03T03:10:05;5.20;90.20
10891;DHT22;5498;50.928;11.598;2022-11-03T03:13:14;5.30;90.20
10891;DHT22;5498;50.928;11.598;2022-11-03T03:16:22;5.20;90.20
10891;DHT22;5498;50.928;11.598;2022-11-03T03:19:39;5.20;90.20
10891;DHT22;5498;50.928;11.598;2022-11-03T03:22:48;5.10;90.30
10891;DHT22;5498;50.928;11.598;2022-11-03T03:25:57;5.10;90.30
10891;DHT22;5498;50.928;11.598;2022-11-03T03:29:08;5.60;90.50
10891;DHT22;5498;50.928;11.598;2022-11-03T03:32:16;5.10;90.40
10891;DHT22;5498;50.928;11.598;2022-11-03T03:35:22;5.10;90.40
10891;DHT22;5498;50.928;11.598;2022-11-03T03:38:29;5.10;90.40
10891;DHT22;5498;50.928;11.598;2022-11-03T03:41:35;5.10;90.40
10891;DHT22;5498;50.928;11.598;2022-11-03T03:44:40;5.10;90.50
10891;DHT22;5498;50.928;11.598;2022-11-03T03:47:43;5.00;90.60
10891;DHT22;5498;50.928;11.598;2022-11-03T03:50:47;5.00;90.50
10891;DHT22;5498;50.928;11.598;2022-11-03T03:53:50;5.10;90.60
10891;DHT22;5498;50.928;11.598;2022-11-03T03:56:56;5.00;90.60
10891;DHT22;5498;50.928;11.598;2022-11-03T04:00:03;5.00;90.60
10891;DHT22;5498;50.928;11.598;2022-11-03T04:03:13;5.00;90.50
10891;DHT22;5498;50.928;11.598;2022-11-03T04:06:17;5.50;90.70
10891;DHT22;5498;50.928;11.598;2022-11-03T04:09:19;4.90;90.40
10891;DHT22;5498;50.928;11.598;2022-11-03T04:12:21;4.90;90.40
10891;DHT22;5498;50.928;11.598;2022-11-03T04:15:42;4.90;90.50
10891;DHT22;5498;50.928;11.598;2022-11-03T04:19:01;4.80;90.50
10891;DHT22;5498;50.928;11.598;2022-11-03T04:22:22;4.70;90.50
10891;DHT22;5498;50.928;11.598;2022-11-03T04:25:25;4.70;90.70
10891;DHT22;5498;50.928;11.598;2022-11-03T04:28:27;4.70;90.50
10891;DHT22;5498;50.928;11.598;2022-11-03T04:31:34;4.70;90.80
10891;DHT22;5498;50.928;11.598;2022-11-03T04:34:37;4.70;90.80
10891;DHT22;5498;50.928;11.598;2022-11-03T04:37:39;4.60;90.60
10891;DHT22;5498;50.928;11.598;2022-11-03T04:40:44;4.50;90.60
10891;DHT22;5498;50.928;11.598;2022-11-03T04:43:47;4.50;90.90
10891;DHT22;5498;50.928;11.598;2022-11-03T04:46:52;4.40;90.90
10891;DHT22;5498;50.928;11.598;2022-11-03T04:49:56;4.40;90.90
10891;DHT22;5498;50.928;11.598;2022-11-03T04:52:59;4.40;91.00
10891;DHT22;5498;50.928;11.598;2022-11-03T04:56:01;4.40;90.80
10891;DHT22;5498;50.928;11.598;2022-11-03T04:59:10;4.30;90.60
10891;DHT22;5498;50.928;11.598;2022-11-03T05:02:17;4.30;91.10
10891;DHT22;5498;50.928;11.598;2022-11-03T05:05:22;4.20;90.50
10891;DHT22;5498;50.928;11.598;2022-11-03T05:08:25;4.30;90.90
10891;DHT22;5498;50.928;11.598;2022-11-03T05:11:30;4.30;90.40
10891;DHT22;5498;50.928;11.598;2022-11-03T05:14:36;4.20;90.80
10891;DHT22;5498;50.928;11.598;2022-11-03T05:17:39;4.60;90.80
10891;DHT22;5498;50.928;11.598;2022-11-03T05:20:45;4.10;90.60
10891;DHT22;5498;50.928;11.598;2022-11-03T05:23:52;4.10;91.10
10891;DHT22;5498;50.928;11.598;2022-11-03T05:26:57;4.10;91.20
10891;DHT22;5498;50.928;11.598;2022-11-03T05:29:59;4.10;91.20
10891;DHT22;5498;50.928;11.598;2022-11-03T05:33:14;4.20;90.80
10891;DHT22;5498;50.928;11.598;2022-11-03T05:36:22;4.20;91.00
10891;DHT22;5498;50.928;11.598;2022-11-03T05:39:29;4.20;90.80
10891;DHT22;5498;50.928;11.598;2022-11-03T05:42:34;4.10;90.70
10891;DHT22;5498;50.928;11.598;2022-11-03T05:45:37;4.00;90.80
10891;DHT22;5498;50.928;11.598;2022-11-03T05:48:41;3.90;90.80
10891;DHT22;5498;50.928;11.598;2022-11-03T05:51:45;3.80;91.10
10891;DHT22;5498;50.928;11.598;2022-11-03T05:54:48;3.70;91.20
10891;DHT22;5498;50.928;11.598;2022-11-03T05:57:51;3.90;91.40
10891;DHT22;5498;50.928;11.598;2022-11-03T06:00:58;3.80;91.20
10891;DHT22;5498;50.928;11.598;2022-11-03T06:04:14;3.80;91.60
10891;DHT22;5498;50.928;11.598;2022-11-03T06:07:23;3.90;91.70
10891;DHT22;5498;50.928;11.598;2022-11-03T06:10:29;3.90;91.70
10891;DHT22;5498;50.928;11.598;2022-11-03T06:13:35;4.00;91.50
10891;DHT22;5498;50.928;11.598;2022-11-03T06:16:40;4.60;91.80
10891;DHT22;5498;50.928;11.598;2022-11-03T06:19:46;4.10;91.50
10891;DHT22;5498;50.928;11.598;2022-11-03T06:22:51;4.10;91.20
10891;DHT22;5498;50.928;11.598;2022-11-03T06:25:56;4.10;91.20
10891;DHT22;5498;50.928;11.598;2022-11-03T06:28:59;4.40;89.00
10891;DHT22;5498;50.928;11.598;2022-11-03T06:32:01;4.20;90.80
10891;DHT22;5498;50.928;11.598;2022-11-03T06:35:08;4.20;91.00
10891;DHT22;5498;50.928;11.598;2022-11-03T06:38:17;4.20;91.20
10891;DHT22;5498;50.928;11.598;2022-11-03T06:41:24;4.80;91.40
10891;DHT22;5498;50.928;11.598;2022-11-03T06:44:28;4.80;91.40
10891;DHT22;5498;50.928;11.598;2022-11-03T06:47:31;4.40;91.00
10891;DHT22;5498;50.928;11.598;2022-11-03T06:50:36;4.40;91.40
10891;DHT22;5498;50.928;11.598;2022-11-03T06:53:38;4.40;91.10
10891;DHT22;5498;50.928;11.598;2022-11-03T06:56:40;4.50;91.00
10891;DHT22;5498;50.928;11.598;2022-11-03T06:59:43;4.90;91.40
10891;DHT22;5498;50.928;11.598;2022-11-03T07:03:05;4.60;91.20
10891;DHT22;5498;50.928;11.598;2022-11-03T07:06:18;4.70;91.40
10891;DHT22;5498;50.928;11.598;2022-11-03T07:09:24;4.70;91.40
10891;DHT22;5498;50.928;11.598;2022-11-03T07:12:26;4.80;91.20
10891;DHT22;5498;50.928;11.598;2022-11-03T07:15:31;4.80;91.00
10891;DHT22;5498;50.928;11.598;2022-11-03T07:18:35;4.80;91.20
10891;DHT22;5498;50.928;11.598;2022-11-03T07:21:45;4.80;91.60
10891;DHT22;5498;50.928;11.598;2022-11-03T07:24:51;4.90;91.20
10891;DHT22;5498;50.928;11.598;2022-11-03T07:27:55;4.90;91.30
10891;DHT22;5498;50.928;11.598;2022-11-03T07:30:59;4.90;91.10
10891;DHT22;5498;50.928;11.598;2022-11-03T07:34:05;5.10;91.30
10891;DHT22;5498;50.928;11.598;2022-11-03T07:37:15;5.20;91.30
10891;DHT22;5498;50.928;11.598;2022-11-03T07:40:21;5.30;91.20
10891;DHT22;5498;50.928;11.598;2022-11-03T07:43:27;5.70;91.30
10891;DHT22;5498;50.928;11.598;2022-11-03T07:46:31;5.40;91.30
10891;DHT22;5498;50.928;11.598;2022-11-03T07:49:33;5.50;91.40
10891;DHT22;5498;50.928;11.598;2022-11-03T07:52:36;5.60;90.90
10891;DHT22;5498;50.928;11.598;2022-11-03T07:55:38;5.70;91.00
10891;DHT22;5498;50.928;11.598;2022-11-03T07:58:41;5.80;90.90
10891;DHT22;5498;50.928;11.598;2022-11-03T08:01:47;5.90;91.00
10891;DHT22;5498;50.928;11.598;2022-11-03T08:04:50;5.90;91.00
10891;DHT22;5498;50.928;11.598;2022-11-03T08:07:54;6.00;90.80
10891;DHT22;5498;50.928;11.598;2022-11-03T08:10:56;6.10;90.70
10891;DHT22;5498;50.928;11.598;2022-11-03T08:13:58;6.10;90.90
10891;DHT22;5498;50.928;11.598;2022-11-03T08:17:00;6.20;90.80
10891;DHT22;5498;50.928;11.598;2022-11-03T08:20:03;6.70;91.20
10891;DHT22;5498;50.928;11.598;2022-11-03T08:23:07;6.30;91.20
10891;DHT22;5498;50.928;11.598;2022-11-03T08:26:11;6.40;91.00
10891;DHT22;5498;50.928;11.598;2022-11-03T08:29:13;7.00;91.00
10891;DHT22;5498;50.928;11.598;2022-11-03T08:32:17;6.60;90.70
10891;DHT22;5498;50.928;11.598;2022-11-03T08:35:19;7.10;91.00
10891;DHT22;5498;50.928;11.598;2022-11-03T08:38:22;7.20;90.90
10891;DHT22;5498;50.928;11.598;2022-11-03T08:41:24;6.80;90.70
10891;DHT22;5498;50.928;11.598;2022-11-03T08:44:26;7.00;90.80
10891;DHT22;5498;50.928;11.598;2022-11-03T08:47:29;7.30;90.70
10891;DHT22;5498;50.928;11.598;2022-11-03T08:50:31;7.20;90.50
10891;DHT22;5498;50.928;11.598;2022-11-03T08:53:34;7.30;90.40
10891;DHT22;5498;50.928;11.598;2022-11-03T08:56:38;7.50;90.50
10891;DHT22;5498;50.928;11.598;2022-11-03T08:59:44;7.60;90.20
10891;DHT22;5498;50.928;11.598;2022-11-03T09:02:46;7.80;90.30
10891;DHT22;5498;50.928;11.598;2022-11-03T09:05:48;8.00;90.10
10891;DHT22;5498;50.928;11.598;2022-11-03T09:08:52;8.20;89.80
10891;DHT22;5498;50.928;11.598;2022-11-03T09:11:54;8.30;88.30
10891;DHT22;5498;50.928;11.598;2022-11-03T09:14:56;9.00;90.10
10891;DHT22;5498;50.928;11.598;2022-11-03T09:17:58;9.10;89.80
10891;DHT22;5498;50.928;11.598;2022-11-03T09:21:00;8.60;89.70
10891;DHT22;5498;50.928;11.598;2022-11-03T09:24:04;8.90;89.10
10891;DHT22;5498;50.928;11.598;2022-11-03T09:27:07;9.00;88.90
10891;DHT22;5498;50.928;11.598;2022-11-03T09:30:11;9.10;88.40
10891;DHT22;5498;50.928;11.598;2022-11-03T09:33:13;9.30;88.60
10891;DHT22;5498;50.928;11.598;2022-11-03T09:36:15;9.40;87.90
10891;DHT22;5498;50.928;11.598;2022-11-03T09:39:19;9.50;87.70
10891;DHT22;5498;50.928;11.598;2022-11-03T09:42:21;9.50;87.70
10891;DHT22;5498;50.928;11.598;2022-11-03T09:45:23;10.00;88.30
10891;DHT22;5498;50.928;11.598;2022-11-03T09:48:25;9.80;87.70
10891;DHT22;5498;50.928;11.598;2022-11-03T09:51:28;9.90;87.50
10891;DHT22;5498;50.928;11.598;2022-11-03T09:54:31;10.00;87.10
10891;DHT22;5498;50.928;11.598;2022-11-03T09:57:33;10.20;86.90
10891;DHT22;5498;50.928;11.598;2022-11-03T10:00:36;10.40;86.90
10891;DHT22;5498;50.928;11.598;2022-11-03T10:03:38;10.50;86.00
10891;DHT22;5498;50.928;11.598;2022-11-03T10:06:40;10.50;85.50
10891;DHT22;5498;50.928;11.598;2022-11-03T10:09:48;10.60;85.80
10891;DHT22;5498;50.928;11.598;2022-11-03T10:12:51;10.70;85.90
10891;DHT22;5498;50.928;11.598;2022-11-03T10:15:55;10.80;85.30
10891;DHT22;5498;50.928;11.598;2022-11-03T10:18:59;10.80;85.30
10891;DHT22;5498;50.928;11.598;2022-11-03T10:22:01;11.00;85.00
10891;DHT22;5498;50.928;11.598;2022-11-03T10:28:57;11.10;85.40
10891;DHT22;5498;50.928;11.598;2022-11-03T10:32:10;11.30;84.80
10891;DHT22;5498;50.928;11.598;2022-11-03T10:35:34;11.30;84.90
10891;DHT22;5498;50.928;11.598;2022-11-03T10:38:36;11.70;85.10
10891;DHT22;5498;50.928;11.598;2022-11-03T10:41:54;11.10;80.90
10891;DHT22;5498;50.928;11.598;2022-11-03T10:45:09;12.00;83.20
10891;DHT22;5498;50.928;11.598;2022-11-03T10:48:12;12.20;85.70
10891;DHT22;5498;50.928;11.598;2022-11-03T10:51:15;12.20;82.30
10891;DHT22;5498;50.928;11.598;2022-11-03T10:54:21;12.50;80.00
10891;DHT22;5498;50.928;11.598;2022-11-03T10:57:26;12.80;83.40
10891;DHT22;5498;50.928;11.598;2022-11-03T11:00:28;13.20;83.00
10891;DHT22;5498;50.928;11.598;2022-11-03T11:03:31;13.30;81.50
10891;DHT22;5498;50.928;11.598;2022-11-03T11:06:36;14.00;80.90
10891;DHT22;5498;50.928;11.598;2022-11-03T11:09:41;14.10;81.20
10891;DHT22;5498;50.928;11.598;2022-11-03T11:13:12;14.40;80.30
10891;DHT22;5498;50.928;11.598;2022-11-03T11:16:48;14.30;80.60
10891;DHT22;5498;50.928;11.598;2022-11-03T11:20:27;14.50;79.90
10891;DHT22;5498;50.928;11.598;2022-11-03T11:23:44;14.70;79.60
10891;DHT22;5498;50.928;11.598;2022-11-03T11:26:47;14.90;78.50
10891;DHT22;5498;50.928;11.598;2022-11-03T11:29:51;15.10;77.90
10891;DHT22;5498;50.928;11.598;2022-11-03T11:32:58;15.20;74.90
10891;DHT22;5498;50.928;11.598;2022-11-03T11:36:04;15.60;71.30
10891;DHT22;5498;50.928;11.598;2022-11-03T11:39:42;15.70;73.10
10891;DHT22;5498;50.928;11.598;2022-11-03T11:46:38;15.50;74.00
10891;DHT22;5498;50.928;11.598;2022-11-03T11:49:43;15.90;74.60
10891;DHT22;5498;50.928;11.598;2022-11-03T11:52:49;15.20;72.00
10891;DHT22;5498;50.928;11.598;2022-11-03T11:55:54;15.70;74.00
10891;DHT22;5498;50.928;11.598;2022-11-03T11:58:57;15.70;73.20
10891;DHT22;5498;50.928;11.598;2022-11-03T12:02:17;15.80;72.90
10891;DHT22;5498;50.928;11.598;2022-11-03T12:05:21;15.40;71.60
10891;DHT22;5498;50.928;11.598;2022-11-03T12:08:27;16.30;72.90
10891;DHT22;5498;50.928;11.598;2022-11-03T12:11:40;16.00;71.80
10891;DHT22;5498;50.928;11.598;2022-11-03T12:14:43;16.00;71.30
10891;DHT22;5498;50.928;11.598;2022-11-03T12:17:46;16.10;69.60
10891;DHT22;5498;50.928;11.598;2022-11-03T12:20:49;16.10;65.80
10891;DHT22;5498;50.928;11.598;2022-11-03T12:23:51;16.10;67.10
10891;DHT22;5498;50.928;11.598;2022-11-03T12:26:53;16.30;67.50
10891;DHT22;5498;50.928;11.598;2022-11-03T12:29:57;16.40;66.20
10891;DHT22;5498;50.928;11.598;2022-11-03T12:33:01;16.40;66.80
10891;DHT22;5498;50.928;11.598;2022-11-03T12:36:04;16.00;65.90
10891;DHT22;5498;50.928;11.598;2022-11-03T12:39:10;15.30;65.10
10891;DHT22;5498;50.928;11.598;2022-11-03T12:42:15;15.50;66.30
10891;DHT22;5498;50.928;11.598;2022-11-03T12:45:23;15.50;67.40
10891;DHT22;5498;50.928;11.598;2022-11-03T12:48:37;15.80;65.80
10891;DHT22;5498;50.928;11.598;2022-11-03T12:51:45;15.50;65.00
10891;DHT22;5498;50.928;11.598;2022-11-03T12:55:15;15.50;66.50
10891;DHT22;5498;50.928;11.598;2022-11-03T12:58:17;15.50;66.50
10891;DHT22;5498;50.928;11.598;2022-11-03T13:01:20;15.50;67.70
10891;DHT22;5498;50.928;11.598;2022-11-03T13:04:25;15.50;68.00
10891;DHT22;5498;50.928;11.598;2022-11-03T13:07:30;15.70;66.00
10891;DHT22;5498;50.928;11.598;2022-11-03T13:10:38;15.40;66.50
10891;DHT22;5498;50.928;11.598;2022-11-03T13:13:57;15.50;66.50
10891;DHT22;5498;50.928;11.598;2022-11-03T13:17:25;15.60;65.90
10891;DHT22;5498;50.928;11.598;2022-11-03T13:20:48;15.10;68.40
10891;DHT22;5498;50.928;11.598;2022-11-03T13:24:16;15.60;67.00
10891;DHT22;5498;50.928;11.598;2022-11-03T13:27:24;15.40;67.70
10891;DHT22;5498;50.928;11.598;2022-11-03T13:30:39;15.50;67.10
10891;DHT22;5498;50.928;11.598;2022-11-03T13:33:46;15.90;68.10
10891;DHT22;5498;50.928;11.598;2022-11-03T13:37:04;15.60;67.80
10891;DHT22;5498;50.928;11.598;2022-11-03T13:40:07;15.60;69.90
10891;DHT22;5498;50.928;11.598;2022-11-03T13:43:10;15.70;69.40
10891;DHT22;5498;50.928;11.598;2022-11-03T13:46:13;15.90;69.00
10891;DHT22;5498;50.928;11.598;2022-11-03T13:49:15;15.60;69.60
10891;DHT22;5498;50.928;11.598;2022-11-03T13:52:18;15.60;70.50
10891;DHT22;5498;50.928;11.598;2022-11-03T13:55:20;15.90;70.60
10891;DHT22;5498;50.928;11.598;2022-11-03T13:58:22;15.70;70.90
10891;DHT22;5498;50.928;11.598;2022-11-03T14:01:24;16.00;71.60
10891;DHT22;5498;50.928;11.598;2022-11-03T14:04:26;15.70;70.50
10891;DHT22;5498;50.928;11.598;2022-11-03T14:07:30;15.90;70.90
10891;DHT22;5498;50.928;11.598;2022-11-03T14:10:32;16.10;71.20
10891;DHT22;5498;50.928;11.598;2022-11-03T14:13:34;15.60;70.80
10891;DHT22;5498;50.928;11.598;2022-11-03T14:16:36;15.50;70.40
10891;DHT22;5498;50.928;11.598;2022-11-03T14:19:38;15.40;69.60
10891;DHT22;5498;50.928;11.598;2022-11-03T14:22:42;15.30;69.70
10891;DHT22;5498;50.928;11.598;2022-11-03T14:25:44;15.10;69.90
10891;DHT22;5498;50.928;11.598;2022-11-03T14:28:46;15.10;70.50
10891;DHT22;5498;50.928;11.598;2022-11-03T14:31:48;15.10;70.50
10891;DHT22;5498;50.928;11.598;2022-11-03T14:34:50;15.60;70.60
10891;DHT22;5498;50.928;11.598;2022-11-03T14:37:54;15.00;70.30
10891;DHT22;5498;50.928;11.598;2022-11-03T14:40:56;15.00;70.70
10891;DHT22;5498;50.928;11.598;2022-11-03T14:44:16;14.90;71.10
10891;DHT22;5498;50.928;11.598;2022-11-03T14:47:18;14.90;71.00
10891;DHT22;5498;50.928;11.598;2022-11-03T14:50:21;14.90;71.00
10891;DHT22;5498;50.928;11.598;2022-11-03T14:53:25;14.90;71.20
10891;DHT22;5498;50.928;11.598;2022-11-03T14:56:27;14.90;71.30
10891;DHT22;5498;50.928;11.598;2022-11-03T14:59:33;15.00;70.70
10891;DHT22;5498;50.928;11.598;2022-11-03T15:02:35;14.80;71.10
10891;DHT22;5498;50.928;11.598;2022-11-03T15:05:38;15.00;71.70
10891;DHT22;5498;50.928;11.598;2022-11-03T15:08:47;14.80;70.50
10891;DHT22;5498;50.928;11.598;2022-11-03T15:11:49;14.70;71.50
10891;DHT22;5498;50.928;11.598;2022-11-03T15:14:51;14.70;71.70
10891;DHT22;5498;50.928;11.598;2022-11-03T15:17:53;14.90;71.90
10891;DHT22;5498;50.928;11.598;2022-11-03T15:20:55;14.90;72.20
10891;DHT22;5498;50.928;11.598;2022-11-03T15:23:58;14.50;72.00
10891;DHT22;5498;50.928;11.598;2022-11-03T15:27:00;14.50;72.60
10891;DHT22;5498;50.928;11.598;2022-11-03T15:30:03;14.50;72.20
10891;DHT22;5498;50.928;11.598;2022-11-03T15:33:06;14.50;73.00
10891;DHT22;5498;50.928;11.598;2022-11-03T15:36:09;14.40;73.00
10891;DHT22;5498;50.928;11.598;2022-11-03T15:39:12;14.70;73.60
10891;DHT22;5498;50.928;11.598;2022-11-03T15:42:15;14.30;74.50
10891;DHT22;5498;50.928;11.598;2022-11-03T15:45:18;14.20;74.60
10891;DHT22;5498;50.928;11.598;2022-11-03T15:48:20;14.10;74.60
10891;DHT22;5498;50.928;11.598;2022-11-03T15:51:22;14.10;75.30
10891;DHT22;5498;50.928;11.598;2022-11-03T15:54:26;14.00;75.00
10891;DHT22;5498;50.928;11.598;2022-11-03T15:57:28;13.90;75.40
10891;DHT22;5498;50.928;11.598;2022-11-03T16:00:30;14.00;74.70
10891;DHT22;5498;50.928;11.598;2022-11-03T16:03:32;13.90;75.00
10891;DHT22;5498;50.928;11.598;2022-11-03T16:06:34;13.90;75.10
10891;DHT22;5498;50.928;11.598;2022-11-03T16:09:37;13.90;75.30
10891;DHT22;5498;50.928;11.598;2022-11-03T16:12:39;13.80;75.90
10891;DHT22;5498;50.928;11.598;2022-11-03T16:15:44;13.80;75.00
10891;DHT22;5498;50.928;11.598;2022-11-03T16:18:46;13.80;75.80
10891;DHT22;5498;50.928;11.598;2022-11-03T16:21:48;13.80;76.10
10891;DHT22;5498;50.928;11.598;2022-11-03T16:24:52;14.20;76.90
10891;DHT22;5498;50.928;11.598;2022-11-03T16:27:55;13.60;75.70
10891;DHT22;5498;50.928;11.598;2022-11-03T16:30:57;13.60;76.00
10891;DHT22;5498;50.928;11.598;2022-11-03T16:33:59;13.60;75.60
10891;DHT22;5498;50.928;11.598;2022-11-03T16:37:01;13.60;75.80
10891;DHT22;5498;50.928;11.598;2022-11-03T16:40:05;13.60;75.70
10891;DHT22;5498;50.928;11.598;2022-11-03T16:43:10;13.60;76.60
10891;DHT22;5498;50.928;11.598;2022-11-03T16:46:12;13.60;76.80
10891;DHT22;5498;50.928;11.598;2022-11-03T16:49:14;13.60;76.50
10891;DHT22;5498;50.928;11.598;2022-11-03T16:52:17;13.60;76.10
10891;DHT22;5498;50.928;11.598;2022-11-03T16:55:20;13.60;75.60
10891;DHT22;5498;50.928;11.598;2022-11-03T16:58:22;13.80;76.10
10891;DHT22;5498;50.928;11.598;2022-11-03T17:01:25;13.60;76.70
10891;DHT22;5498;50.928;11.598;2022-11-03T17:04:27;13.50;76.10
10891;DHT22;5498;50.928;11.598;2022-11-03T17:07:30;13.70;76.30
10891;DHT22;5498;50.928;11.598;2022-11-03T17:10:34;13.50;76.60
10891;DHT22;5498;50.928;11.598;2022-11-03T17:13:36;13.40;76.70
10891;DHT22;5498;50.928;11.598;2022-11-03T17:16:39;13.40;76.80
10891;DHT22;5498;50.928;11.598;2022-11-03T17:19:44;13.70;77.50
10891;DHT22;5498;50.928;11.598;2022-11-03T17:22:46;13.40;76.80
10891;DHT22;5498;50.928;11.598;2022-11-03T17:25:50;13.40;77.90
10891;DHT22;5498;50.928;11.598;2022-11-03T17:28:52;13.40;77.10
10891;DHT22;5498;50.928;11.598;2022-11-03T17:31:56;13.40;77.60
10891;DHT22;5498;50.928;11.598;2022-11-03T17:34:58;13.40;77.60
10891;DHT22;5498;50.928;11.598;2022-11-03T17:38:02;13.20;77.70
10891;DHT22;5498;50.928;11.598;2022-11-03T17:41:09;13.20;78.30
10891;DHT22;5498;50.928;11.598;2022-11-03T17:44:12;13.20;78.00
10891;DHT22;5498;50.928;11.598;2022-11-03T17:47:16;13.20;79.00
10891;DHT22;5498;50.928;11.598;2022-11-03T17:50:21;12.80;78.80
10891;DHT22;5498;50.928;11.598;2022-11-03T17:53:25;13.20;79.20
10891;DHT22;5498;50.928;11.598;2022-11-03T17:56:30;13.10;79.30
10891;DHT22;5498;50.928;11.598;2022-11-03T17:59:32;13.10;78.60
10891;DHT22;5498;50.928;11.598;2022-11-03T18:02:35;13.10;78.40
10891;DHT22;5498;50.928;11.598;2022-11-03T18:05:39;13.10;79.00
10891;DHT22;5498;50.928;11.598;2022-11-03T18:08:41;13.10;80.00
10891;DHT22;5498;50.928;11.598;2022-11-03T18:11:45;13.00;78.60
10891;DHT22;5498;50.928;11.598;2022-11-03T18:15:09;13.00;78.50
10891;DHT22;5498;50.928;11.598;2022-11-03T18:18:18;13.00;80.10
10891;DHT22;5498;50.928;11.598;2022-11-03T18:21:22;12.90;80.20
10891;DHT22;5498;50.928;11.598;2022-11-03T18:24:27;12.90;79.50
10891;DHT22;5498;50.928;11.598;2022-11-03T18:27:39;12.90;78.80
10891;DHT22;5498;50.928;11.598;2022-11-03T18:30:43;12.90;78.10
10891;DHT22;5498;50.928;11.598;2022-11-03T18:33:46;12.90;80.20
10891;DHT22;5498;50.928;11.598;2022-11-03T18:36:49;12.80;80.50
10891;DHT22;5498;50.928;11.598;2022-11-03T18:39:52;12.80;80.60
10891;DHT22;5498;50.928;11.598;2022-11-03T18:42:56;12.70;80.30
10891;DHT22;5498;50.928;11.598;2022-11-03T18:45:58;12.60;81.00
10891;DHT22;5498;50.928;11.598;2022-11-03T18:49:00;12.50;80.70
10891;DHT22;5498;50.928;11.598;2022-11-03T18:52:09;12.50;81.80
10891;DHT22;5498;50.928;11.598;2022-11-03T18:55:14;12.40;82.30
10891;DHT22;5498;50.928;11.598;2022-11-03T18:58:21;12.40;82.20
10891;DHT22;5498;50.928;11.598;2022-11-03T19:01:26;12.60;82.20
10891;DHT22;5498;50.928;11.598;2022-11-03T19:04:28;12.30;83.00
10891;DHT22;5498;50.928;11.598;2022-11-03T19:07:31;12.20;82.50
10891;DHT22;5498;50.928;11.598;2022-11-03T19:10:38;12.30;82.90
10891;DHT22;5498;50.928;11.598;2022-11-03T19:13:43;12.30;83.00
10891;DHT22;5498;50.928;11.598;2022-11-03T19:16:46;12.40;83.40
10891;DHT22;5498;50.928;11.598;2022-11-03T19:19:51;12.00;82.90
10891;DHT22;5498;50.928;11.598;2022-11-03T19:22:54;12.20;84.00
10891;DHT22;5498;50.928;11.598;2022-11-03T19:25:57;11.90;83.20
10891;DHT22;5498;50.928;11.598;2022-11-03T19:29:04;11.80;84.50
10891;DHT22;5498;50.928;11.598;2022-11-03T19:45:57;11.50;85.90
10891;DHT22;5498;50.928;11.598;2022-11-03T19:49:00;11.40;85.50
10891;DHT22;5498;50.928;11.598;2022-11-03T19:52:02;11.70;85.30
10891;DHT22;5498;50.928;11.598;2022-11-03T19:55:06;11.30;85.70
10891;DHT22;5498;50.928;11.598;2022-11-03T19:58:12;11.20;86.30
10891;DHT22;5498;50.928;11.598;2022-11-03T20:01:17;11.40;86.60
10891;DHT22;5498;50.928;11.598;2022-11-03T20:04:22;11.10;86.00